sensor_id;sensor_type;location;lat;lon;timestamp;P1;durP1;ratioP1;P2;durP2;ratioP2
70253;SDS011;57649;42.968;1.608;2023-02-20T00:01:51;24.42;;;16.67;;
70253;SDS011;57649;42.968;1.608;2023-02-20T00:04:18;23.45;;;15.23;;
70253;SDS011;57649;42.968;1.608;2023-02-20T00:06:44;20.83;;;14.48;;
70253;SDS011;57649;42.968;1.608;2023-02-20T00:09:10;20.83;;;13.02;;
70253;SDS011;57649;42.968;1.608;2023-02-20T00:11:36;15.75;;;11.82;;
70253;SDS011;57649;42.968;1.608;2023-02-20T00:14:01;19.33;;;12.75;;
70253;SDS011;57649;42.968;1.608;2023-02-20T00:16:27;17.73;;;12.20;;
70253;SDS011;57649;42.968;1.608;2023-02-20T00:18:53;16.80;;;12.18;;
70253;SDS011;57649;42.968;1.608;2023-02-20T00:21:18;16.20;;;11.55;;
70253;SDS011;57649;42.968;1.608;2023-02-20T00:23:44;15.40;;;10.98;;
70253;SDS011;57649;42.968;1.608;2023-02-20T00:26:10;17.23;;;11.05;;
70253;SDS011;57649;42.968;1.608;2023-02-20T00:28:37;19.83;;;10.50;;
70253;SDS011;57649;42.968;1.608;2023-02-20T00:31:04;16.05;;;10.23;;
70253;SDS011;57649;42.968;1.608;2023-02-20T00:33:35;14.82;;;9.98;;
70253;SDS011;57649;42.968;1.608;2023-02-20T00:36:01;15.18;;;10.00;;
70253;SDS011;57649;42.968;1.608;2023-02-20T00:38:26;14.40;;;10.00;;
70253;SDS011;57649;42.968;1.608;2023-02-20T00:40:52;13.25;;;9.30;;
70253;SDS011;57649;42.968;1.608;2023-02-20T00:43:17;15.02;;;9.50;;
70253;SDS011;57649;42.968;1.608;2023-02-20T00:45:43;15.32;;;9.23;;
70253;SDS011;57649;42.968;1.608;2023-02-20T00:48:08;13.35;;;8.75;;
70253;SDS011;57649;42.968;1.608;2023-02-20T00:50:34;13.25;;;9.27;;
70253;SDS011;57649;42.968;1.608;2023-02-20T00:52:59;14.95;;;8.60;;
70253;SDS011;57649;42.968;1.608;2023-02-20T00:55:24;13.85;;;8.40;;
70253;SDS011;57649;42.968;1.608;2023-02-20T00:57:50;12.93;;;8.43;;
70253;SDS011;57649;42.968;1.608;2023-02-20T01:00:20;12.07;;;8.73;;
70253;SDS011;57649;42.968;1.608;2023-02-20T01:02:47;12.10;;;8.57;;
70253;SDS011;57649;42.968;1.608;2023-02-20T01:05:13;12.45;;;8.50;;
70253;SDS011;57649;42.968;1.608;2023-02-20T01:07:39;13.38;;;8.88;;
70253;SDS011;57649;42.968;1.608;2023-02-20T01:10:04;12.57;;;8.10;;
70253;SDS011;57649;42.968;1.608;2023-02-20T01:12:30;10.75;;;8.20;;
70253;SDS011;57649;42.968;1.608;2023-02-20T01:14:55;14.68;;;8.13;;
70253;SDS011;57649;42.968;1.608;2023-02-20T01:17:21;12.02;;;8.15;;
70253;SDS011;57649;42.968;1.608;2023-02-20T01:19:46;12.90;;;8.63;;
70253;SDS011;57649;42.968;1.608;2023-02-20T01:22:12;13.63;;;8.57;;
70253;SDS011;57649;42.968;1.608;2023-02-20T01:24:37;12.63;;;8.98;;
70253;SDS011;57649;42.968;1.608;2023-02-20T01:27:03;10.68;;;7.60;;
70253;SDS011;57649;42.968;1.608;2023-02-20T01:29:29;13.60;;;8.70;;
70253;SDS011;57649;42.968;1.608;2023-02-20T01:31:54;13.20;;;8.57;;
70253;SDS011;57649;42.968;1.608;2023-02-20T01:34:20;16.45;;;9.20;;
70253;SDS011;57649;42.968;1.608;2023-02-20T01:36:50;11.93;;;8.27;;
70253;SDS011;57649;42.968;1.608;2023-02-20T01:39:17;15.88;;;9.43;;
70253;SDS011;57649;42.968;1.608;2023-02-20T01:41:45;11.10;;;8.43;;
70253;SDS011;57649;42.968;1.608;2023-02-20T01:44:20;14.30;;;9.25;;
70253;SDS011;57649;42.968;1.608;2023-02-20T01:46:48;12.85;;;8.40;;
70253;SDS011;57649;42.968;1.608;2023-02-20T01:49:18;13.32;;;8.45;;
70253;SDS011;57649;42.968;1.608;2023-02-20T01:51:49;13.52;;;9.23;;
70253;SDS011;57649;42.968;1.608;2023-02-20T01:54:21;12.65;;;8.10;;
70253;SDS011;57649;42.968;1.608;2023-02-20T01:56:48;12.60;;;8.63;;
70253;SDS011;57649;42.968;1.608;2023-02-20T01:59:16;17.05;;;8.20;;
70253;SDS011;57649;42.968;1.608;2023-02-20T02:01:44;12.27;;;8.90;;
70253;SDS011;57649;42.968;1.608;2023-02-20T02:04:10;13.23;;;8.52;;
70253;SDS011;57649;42.968;1.608;2023-02-20T02:06:37;12.38;;;8.82;;
70253;SDS011;57649;42.968;1.608;2023-02-20T02:09:11;10.70;;;8.48;;
70253;SDS011;57649;42.968;1.608;2023-02-20T02:11:46;14.60;;;8.10;;
70253;SDS011;57649;42.968;1.608;2023-02-20T02:14:13;11.35;;;7.75;;
70253;SDS011;57649;42.968;1.608;2023-02-20T02:21:59;10.65;;;8.05;;
70253;SDS011;57649;42.968;1.608;2023-02-20T02:37:55;11.82;;;7.93;;
70253;SDS011;57649;42.968;1.608;2023-02-20T02:46:13;12.57;;;8.23;;
70253;SDS011;57649;42.968;1.608;2023-02-20T02:48:48;11.93;;;8.65;;
70253;SDS011;57649;42.968;1.608;2023-02-20T02:51:20;11.05;;;8.13;;
70253;SDS011;57649;42.968;1.608;2023-02-20T02:54:03;13.32;;;8.85;;
70253;SDS011;57649;42.968;1.608;2023-02-20T02:56:42;11.82;;;7.90;;
70253;SDS011;57649;42.968;1.608;2023-02-20T02:59:11;12.02;;;7.80;;
70253;SDS011;57649;42.968;1.608;2023-02-20T03:01:43;11.90;;;7.25;;
70253;SDS011;57649;42.968;1.608;2023-02-20T03:04:19;11.95;;;7.63;;
70253;SDS011;57649;42.968;1.608;2023-02-20T03:06:47;11.25;;;7.72;;
70253;SDS011;57649;42.968;1.608;2023-02-20T03:09:23;13.32;;;7.80;;
70253;SDS011;57649;42.968;1.608;2023-02-20T03:11:53;11.60;;;7.45;;
70253;SDS011;57649;42.968;1.608;2023-02-20T03:14:22;9.00;;;7.13;;
70253;SDS011;57649;42.968;1.608;2023-02-20T03:19:41;11.13;;;7.07;;
70253;SDS011;57649;42.968;1.608;2023-02-20T03:24:40;13.00;;;7.65;;
70253;SDS011;57649;42.968;1.608;2023-02-20T03:27:25;12.60;;;7.43;;
70253;SDS011;57649;42.968;1.608;2023-02-20T03:30:03;11.38;;;8.15;;
70253;SDS011;57649;42.968;1.608;2023-02-20T03:32:31;10.80;;;7.73;;
70253;SDS011;57649;42.968;1.608;2023-02-20T03:35:16;11.88;;;8.63;;
70253;SDS011;57649;42.968;1.608;2023-02-20T03:38:03;11.15;;;7.57;;
70253;SDS011;57649;42.968;1.608;2023-02-20T03:40:50;10.63;;;7.47;;
70253;SDS011;57649;42.968;1.608;2023-02-20T03:43:35;13.10;;;9.55;;
70253;SDS011;57649;42.968;1.608;2023-02-20T03:46:08;13.45;;;9.30;;
70253;SDS011;57649;42.968;1.608;2023-02-20T03:48:43;13.15;;;8.75;;
70253;SDS011;57649;42.968;1.608;2023-02-20T03:51:12;15.70;;;9.80;;
70253;SDS011;57649;42.968;1.608;2023-02-20T03:53:39;13.75;;;8.68;;
70253;SDS011;57649;42.968;1.608;2023-02-20T03:56:11;11.43;;;8.63;;
70253;SDS011;57649;42.968;1.608;2023-02-20T03:58:41;12.65;;;8.77;;
70253;SDS011;57649;42.968;1.608;2023-02-20T04:01:11;12.80;;;8.63;;
70253;SDS011;57649;42.968;1.608;2023-02-20T04:03:41;12.93;;;8.80;;
70253;SDS011;57649;42.968;1.608;2023-02-20T04:06:09;12.40;;;7.82;;
70253;SDS011;57649;42.968;1.608;2023-02-20T04:08:44;13.25;;;7.70;;
70253;SDS011;57649;42.968;1.608;2023-02-20T04:11:27;22.67;;;17.92;;
70253;SDS011;57649;42.968;1.608;2023-02-20T04:13:58;22.30;;;15.23;;
70253;SDS011;57649;42.968;1.608;2023-02-20T04:16:26;13.88;;;8.95;;
70253;SDS011;57649;42.968;1.608;2023-02-20T04:18:52;22.20;;;15.02;;
70253;SDS011;57649;42.968;1.608;2023-02-20T04:21:22;14.95;;;11.70;;
70253;SDS011;57649;42.968;1.608;2023-02-20T04:24:17;13.87;;;10.50;;
70253;SDS011;57649;42.968;1.608;2023-02-20T04:26:47;14.00;;;11.15;;
70253;SDS011;57649;42.968;1.608;2023-02-20T04:29:12;8.73;;;7.25;;
70253;SDS011;57649;42.968;1.608;2023-02-20T04:31:38;10.27;;;7.45;;
70253;SDS011;57649;42.968;1.608;2023-02-20T04:34:04;10.02;;;6.82;;
70253;SDS011;57649;42.968;1.608;2023-02-20T04:36:29;29.90;;;18.80;;
70253;SDS011;57649;42.968;1.608;2023-02-20T04:38:55;35.00;;;20.00;;
70253;SDS011;57649;42.968;1.608;2023-02-20T04:41:20;21.35;;;14.48;;
70253;SDS011;57649;42.968;1.608;2023-02-20T04:43:46;22.42;;;15.80;;
70253;SDS011;57649;42.968;1.608;2023-02-20T04:46:12;11.15;;;7.28;;
70253;SDS011;57649;42.968;1.608;2023-02-20T04:48:37;10.23;;;6.32;;
70253;SDS011;57649;42.968;1.608;2023-02-20T04:51:03;12.40;;;6.85;;
70253;SDS011;57649;42.968;1.608;2023-02-20T04:53:28;9.68;;;6.97;;
70253;SDS011;57649;42.968;1.608;2023-02-20T04:55:54;8.88;;;7.05;;
70253;SDS011;57649;42.968;1.608;2023-02-20T04:58:19;12.75;;;7.22;;
70253;SDS011;57649;42.968;1.608;2023-02-20T05:00:44;9.07;;;6.38;;
70253;SDS011;57649;42.968;1.608;2023-02-20T05:03:10;10.80;;;6.72;;
70253;SDS011;57649;42.968;1.608;2023-02-20T05:05:35;8.60;;;6.40;;
70253;SDS011;57649;42.968;1.608;2023-02-20T05:08:02;11.38;;;7.13;;
70253;SDS011;57649;42.968;1.608;2023-02-20T05:10:30;9.38;;;6.97;;
70253;SDS011;57649;42.968;1.608;2023-02-20T05:12:57;9.55;;;6.97;;
70253;SDS011;57649;42.968;1.608;2023-02-20T05:15:22;10.98;;;6.75;;
70253;SDS011;57649;42.968;1.608;2023-02-20T05:17:49;9.52;;;6.32;;
70253;SDS011;57649;42.968;1.608;2023-02-20T05:20:15;11.60;;;6.10;;
70253;SDS011;57649;42.968;1.608;2023-02-20T05:22:40;9.65;;;6.63;;
70253;SDS011;57649;42.968;1.608;2023-02-20T05:25:06;9.07;;;6.32;;
70253;SDS011;57649;42.968;1.608;2023-02-20T05:27:32;11.93;;;7.15;;
70253;SDS011;57649;42.968;1.608;2023-02-20T05:29:58;11.68;;;6.53;;
70253;SDS011;57649;42.968;1.608;2023-02-20T05:32:25;17.17;;;8.20;;
70253;SDS011;57649;42.968;1.608;2023-02-20T05:34:52;10.48;;;6.75;;
70253;SDS011;57649;42.968;1.608;2023-02-20T05:37:19;11.85;;;6.70;;
70253;SDS011;57649;42.968;1.608;2023-02-20T05:39:46;14.05;;;7.47;;
70253;SDS011;57649;42.968;1.608;2023-02-20T05:42:11;12.90;;;6.65;;
70253;SDS011;57649;42.968;1.608;2023-02-20T05:44:38;12.90;;;6.35;;
70253;SDS011;57649;42.968;1.608;2023-02-20T05:47:04;9.95;;;6.40;;
70253;SDS011;57649;42.968;1.608;2023-02-20T05:49:29;14.18;;;6.85;;
70253;SDS011;57649;42.968;1.608;2023-02-20T05:51:56;10.43;;;7.40;;
70253;SDS011;57649;42.968;1.608;2023-02-20T05:54:22;9.70;;;7.20;;
70253;SDS011;57649;42.968;1.608;2023-02-20T05:56:48;12.82;;;7.63;;
70253;SDS011;57649;42.968;1.608;2023-02-20T05:59:18;10.35;;;7.32;;
70253;SDS011;57649;42.968;1.608;2023-02-20T06:01:45;13.93;;;7.43;;
70253;SDS011;57649;42.968;1.608;2023-02-20T06:04:11;12.00;;;7.35;;
70253;SDS011;57649;42.968;1.608;2023-02-20T06:06:37;15.43;;;7.43;;
70253;SDS011;57649;42.968;1.608;2023-02-20T06:09:05;11.32;;;7.35;;
70253;SDS011;57649;42.968;1.608;2023-02-20T06:11:32;12.90;;;7.05;;
70253;SDS011;57649;42.968;1.608;2023-02-20T06:13:58;10.00;;;6.88;;
70253;SDS011;57649;42.968;1.608;2023-02-20T06:16:25;12.45;;;7.38;;
70253;SDS011;57649;42.968;1.608;2023-02-20T06:18:52;11.18;;;6.82;;
70253;SDS011;57649;42.968;1.608;2023-02-20T06:21:17;11.93;;;6.45;;
70253;SDS011;57649;42.968;1.608;2023-02-20T06:23:45;13.30;;;6.53;;
70253;SDS011;57649;42.968;1.608;2023-02-20T06:26:10;11.70;;;7.10;;
70253;SDS011;57649;42.968;1.608;2023-02-20T06:28:38;14.52;;;7.40;;
70253;SDS011;57649;42.968;1.608;2023-02-20T06:31:07;13.88;;;6.97;;
70253;SDS011;57649;42.968;1.608;2023-02-20T06:33:33;13.90;;;7.55;;
70253;SDS011;57649;42.968;1.608;2023-02-20T06:35:59;12.90;;;6.95;;
70253;SDS011;57649;42.968;1.608;2023-02-20T06:38:25;10.82;;;6.35;;
70253;SDS011;57649;42.968;1.608;2023-02-20T06:40:51;12.00;;;6.95;;
70253;SDS011;57649;42.968;1.608;2023-02-20T06:43:17;15.65;;;7.22;;
70253;SDS011;57649;42.968;1.608;2023-02-20T06:45:42;9.55;;;6.93;;
70253;SDS011;57649;42.968;1.608;2023-02-20T06:48:08;14.55;;;6.55;;
70253;SDS011;57649;42.968;1.608;2023-02-20T06:50:34;14.55;;;10.15;;
70253;SDS011;57649;42.968;1.608;2023-02-20T06:52:59;15.20;;;10.27;;
70253;SDS011;57649;42.968;1.608;2023-02-20T06:55:25;13.65;;;8.68;;
70253;SDS011;57649;42.968;1.608;2023-02-20T06:57:50;15.60;;;8.77;;
70253;SDS011;57649;42.968;1.608;2023-02-20T07:00:16;12.85;;;8.93;;
70253;SDS011;57649;42.968;1.608;2023-02-20T07:02:42;19.33;;;8.82;;
70253;SDS011;57649;42.968;1.608;2023-02-20T07:05:08;16.73;;;8.60;;
70253;SDS011;57649;42.968;1.608;2023-02-20T07:07:35;23.27;;;9.52;;
70253;SDS011;57649;42.968;1.608;2023-02-20T07:10:00;15.40;;;9.00;;
70253;SDS011;57649;42.968;1.608;2023-02-20T07:12:29;16.67;;;9.80;;
70253;SDS011;57649;42.968;1.608;2023-02-20T07:17:21;13.68;;;8.45;;
70253;SDS011;57649;42.968;1.608;2023-02-20T07:19:47;20.88;;;9.05;;
70253;SDS011;57649;42.968;1.608;2023-02-20T07:22:12;14.27;;;9.55;;
70253;SDS011;57649;42.968;1.608;2023-02-20T07:24:38;11.93;;;8.65;;
70253;SDS011;57649;42.968;1.608;2023-02-20T07:27:05;19.40;;;10.02;;
70253;SDS011;57649;42.968;1.608;2023-02-20T07:29:31;18.77;;;10.20;;
70253;SDS011;57649;42.968;1.608;2023-02-20T07:31:57;16.15;;;10.48;;
70253;SDS011;57649;42.968;1.608;2023-02-20T07:34:22;11.75;;;8.20;;
70253;SDS011;57649;42.968;1.608;2023-02-20T07:36:48;12.10;;;8.63;;
70253;SDS011;57649;42.968;1.608;2023-02-20T07:39:13;13.82;;;7.72;;
70253;SDS011;57649;42.968;1.608;2023-02-20T07:41:39;16.13;;;7.80;;
70253;SDS011;57649;42.968;1.608;2023-02-20T07:44:05;12.02;;;7.68;;
70253;SDS011;57649;42.968;1.608;2023-02-20T07:46:30;12.65;;;7.85;;
70253;SDS011;57649;42.968;1.608;2023-02-20T07:49:00;14.02;;;8.25;;
70253;SDS011;57649;42.968;1.608;2023-02-20T07:51:27;18.23;;;9.15;;
70253;SDS011;57649;42.968;1.608;2023-02-20T07:53:52;14.23;;;8.70;;
70253;SDS011;57649;42.968;1.608;2023-02-20T07:56:19;15.20;;;8.13;;
70253;SDS011;57649;42.968;1.608;2023-02-20T07:58:46;13.65;;;7.95;;
70253;SDS011;57649;42.968;1.608;2023-02-20T08:01:12;17.67;;;7.85;;
70253;SDS011;57649;42.968;1.608;2023-02-20T08:03:38;17.13;;;7.82;;
70253;SDS011;57649;42.968;1.608;2023-02-20T08:06:04;12.00;;;7.45;;
70253;SDS011;57649;42.968;1.608;2023-02-20T08:08:29;13.30;;;6.93;;
70253;SDS011;57649;42.968;1.608;2023-02-20T08:10:55;15.70;;;7.20;;
70253;SDS011;57649;42.968;1.608;2023-02-20T08:13:21;12.15;;;6.68;;
70253;SDS011;57649;42.968;1.608;2023-02-20T08:15:46;12.27;;;7.60;;
70253;SDS011;57649;42.968;1.608;2023-02-20T08:18:12;11.30;;;6.55;;
70253;SDS011;57649;42.968;1.608;2023-02-20T08:20:38;13.43;;;6.53;;
70253;SDS011;57649;42.968;1.608;2023-02-20T08:23:04;10.60;;;6.95;;
70253;SDS011;57649;42.968;1.608;2023-02-20T08:25:30;16.25;;;7.70;;
70253;SDS011;57649;42.968;1.608;2023-02-20T08:27:56;11.57;;;6.82;;
70253;SDS011;57649;42.968;1.608;2023-02-20T08:30:24;10.40;;;7.00;;
70253;SDS011;57649;42.968;1.608;2023-02-20T08:32:51;15.45;;;7.53;;
70253;SDS011;57649;42.968;1.608;2023-02-20T08:35:18;14.85;;;8.63;;
70253;SDS011;57649;42.968;1.608;2023-02-20T08:37:44;11.82;;;6.82;;
70253;SDS011;57649;42.968;1.608;2023-02-20T08:40:10;12.68;;;7.15;;
70253;SDS011;57649;42.968;1.608;2023-02-20T08:42:36;13.65;;;8.57;;
70253;SDS011;57649;42.968;1.608;2023-02-20T08:45:04;13.80;;;7.40;;
70253;SDS011;57649;42.968;1.608;2023-02-20T08:47:31;9.40;;;5.63;;
70253;SDS011;57649;42.968;1.608;2023-02-20T08:49:57;11.75;;;6.68;;
70253;SDS011;57649;42.968;1.608;2023-02-20T08:52:22;12.13;;;6.43;;
70253;SDS011;57649;42.968;1.608;2023-02-20T08:54:48;17.85;;;6.30;;
70253;SDS011;57649;42.968;1.608;2023-02-20T08:57:14;14.52;;;6.70;;
70253;SDS011;57649;42.968;1.608;2023-02-20T08:59:40;11.02;;;6.97;;
70253;SDS011;57649;42.968;1.608;2023-02-20T09:02:07;11.50;;;6.50;;
70253;SDS011;57649;42.968;1.608;2023-02-20T09:04:41;12.40;;;6.72;;
70253;SDS011;57649;42.968;1.608;2023-02-20T09:07:09;8.87;;;5.53;;
70253;SDS011;57649;42.968;1.608;2023-02-20T09:09:34;9.65;;;5.22;;
70253;SDS011;57649;42.968;1.608;2023-02-20T09:12:00;7.18;;;4.63;;
70253;SDS011;57649;42.968;1.608;2023-02-20T09:14:25;9.48;;;5.05;;
70253;SDS011;57649;42.968;1.608;2023-02-20T09:16:51;10.13;;;5.15;;
70253;SDS011;57649;42.968;1.608;2023-02-20T09:19:17;10.45;;;4.85;;
70253;SDS011;57649;42.968;1.608;2023-02-20T09:21:46;9.25;;;4.50;;
70253;SDS011;57649;42.968;1.608;2023-02-20T09:24:12;14.63;;;5.00;;
70253;SDS011;57649;42.968;1.608;2023-02-20T09:26:37;10.43;;;4.68;;
70253;SDS011;57649;42.968;1.608;2023-02-20T09:29:03;10.85;;;5.25;;
70253;SDS011;57649;42.968;1.608;2023-02-20T09:31:28;12.98;;;5.65;;
70253;SDS011;57649;42.968;1.608;2023-02-20T09:33:54;9.60;;;4.50;;
70253;SDS011;57649;42.968;1.608;2023-02-20T09:36:19;10.57;;;3.75;;
70253;SDS011;57649;42.968;1.608;2023-02-20T09:38:45;9.75;;;4.13;;
70253;SDS011;57649;42.968;1.608;2023-02-20T09:46:51;8.45;;;4.00;;
70253;SDS011;57649;42.968;1.608;2023-02-20T09:49:21;7.15;;;4.05;;
70253;SDS011;57649;42.968;1.608;2023-02-20T09:52:00;8.50;;;3.60;;
70253;SDS011;57649;42.968;1.608;2023-02-20T09:54:30;8.88;;;3.85;;
70253;SDS011;57649;42.968;1.608;2023-02-20T09:57:01;13.23;;;4.75;;
70253;SDS011;57649;42.968;1.608;2023-02-20T10:02:18;10.20;;;4.45;;
70253;SDS011;57649;42.968;1.608;2023-02-20T10:05:06;7.88;;;4.50;;
70253;SDS011;57649;42.968;1.608;2023-02-20T10:07:44;8.60;;;4.10;;
70253;SDS011;57649;42.968;1.608;2023-02-20T10:10:17;12.95;;;4.43;;
70253;SDS011;57649;42.968;1.608;2023-02-20T10:12:59;8.25;;;3.97;;
70253;SDS011;57649;42.968;1.608;2023-02-20T10:15:46;8.77;;;3.85;;
70253;SDS011;57649;42.968;1.608;2023-02-20T10:18:20;6.60;;;3.72;;
70253;SDS011;57649;42.968;1.608;2023-02-20T10:23:48;10.43;;;3.92;;
70253;SDS011;57649;42.968;1.608;2023-02-20T10:28:51;8.20;;;4.70;;
70253;SDS011;57649;42.968;1.608;2023-02-20T10:33:50;8.60;;;3.45;;
70253;SDS011;57649;42.968;1.608;2023-02-20T10:38:53;10.00;;;4.45;;
70253;SDS011;57649;42.968;1.608;2023-02-20T10:41:26;9.65;;;3.65;;
70253;SDS011;57649;42.968;1.608;2023-02-20T10:44:00;7.75;;;3.60;;
70253;SDS011;57649;42.968;1.608;2023-02-20T10:46:34;7.00;;;3.20;;
70253;SDS011;57649;42.968;1.608;2023-02-20T10:49:10;9.30;;;3.50;;
70253;SDS011;57649;42.968;1.608;2023-02-20T10:51:42;8.80;;;4.00;;
70253;SDS011;57649;42.968;1.608;2023-02-20T10:56:44;7.95;;;3.38;;
70253;SDS011;57649;42.968;1.608;2023-02-20T10:59:22;7.70;;;3.38;;
70253;SDS011;57649;42.968;1.608;2023-02-20T11:01:55;5.57;;;3.25;;
70253;SDS011;57649;42.968;1.608;2023-02-20T11:04:31;7.15;;;4.60;;
70253;SDS011;57649;42.968;1.608;2023-02-20T11:07:19;7.93;;;3.90;;
70253;SDS011;57649;42.968;1.608;2023-02-20T11:09:47;7.47;;;3.30;;
70253;SDS011;57649;42.968;1.608;2023-02-20T11:12:21;6.07;;;2.88;;
70253;SDS011;57649;42.968;1.608;2023-02-20T11:14:53;4.83;;;3.20;;
70253;SDS011;57649;42.968;1.608;2023-02-20T11:17:24;6.78;;;2.78;;
70253;SDS011;57649;42.968;1.608;2023-02-20T11:19:52;9.45;;;4.03;;
70253;SDS011;57649;42.968;1.608;2023-02-20T11:25:15;5.70;;;3.17;;
70253;SDS011;57649;42.968;1.608;2023-02-20T11:27:52;7.85;;;3.47;;
70253;SDS011;57649;42.968;1.608;2023-02-20T11:32:46;4.32;;;2.67;;
70253;SDS011;57649;42.968;1.608;2023-02-20T11:35:19;6.15;;;2.33;;
70253;SDS011;57649;42.968;1.608;2023-02-20T11:37:49;17.00;;;9.93;;
70253;SDS011;57649;42.968;1.608;2023-02-20T11:40:35;3.08;;;1.95;;
70253;SDS011;57649;42.968;1.608;2023-02-20T11:43:14;3.45;;;2.17;;
70253;SDS011;57649;42.968;1.608;2023-02-20T11:45:45;4.18;;;2.67;;
70253;SDS011;57649;42.968;1.608;2023-02-20T11:48:18;7.28;;;2.25;;
70253;SDS011;57649;42.968;1.608;2023-02-20T11:55:46;4.43;;;2.40;;
70253;SDS011;57649;42.968;1.608;2023-02-20T11:58:26;5.07;;;2.22;;
70253;SDS011;57649;42.968;1.608;2023-02-20T12:00:53;3.47;;;2.50;;
70253;SDS011;57649;42.968;1.608;2023-02-20T12:03:20;3.83;;;2.55;;
70253;SDS011;57649;42.968;1.608;2023-02-20T12:05:52;3.67;;;2.70;;
70253;SDS011;57649;42.968;1.608;2023-02-20T12:08:31;3.30;;;2.22;;
70253;SDS011;57649;42.968;1.608;2023-02-20T12:13:45;3.85;;;2.70;;
70253;SDS011;57649;42.968;1.608;2023-02-20T12:27:24;5.75;;;2.70;;
70253;SDS011;57649;42.968;1.608;2023-02-20T12:29:56;4.15;;;2.58;;
70253;SDS011;57649;42.968;1.608;2023-02-20T12:40:13;7.40;;;2.70;;
70253;SDS011;57649;42.968;1.608;2023-02-20T12:42:56;4.93;;;2.50;;
70253;SDS011;57649;42.968;1.608;2023-02-20T12:45:37;3.08;;;2.45;;
70253;SDS011;57649;42.968;1.608;2023-02-20T12:53:36;3.50;;;1.80;;
70253;SDS011;57649;42.968;1.608;2023-02-20T12:56:40;3.42;;;1.98;;
70253;SDS011;57649;42.968;1.608;2023-02-20T12:59:12;3.25;;;1.77;;
70253;SDS011;57649;42.968;1.608;2023-02-20T13:01:49;4.20;;;1.80;;
70253;SDS011;57649;42.968;1.608;2023-02-20T13:04:37;7.43;;;2.00;;
70253;SDS011;57649;42.968;1.608;2023-02-20T13:07:14;7.13;;;2.10;;
70253;SDS011;57649;42.968;1.608;2023-02-20T13:09:58;9.70;;;3.00;;
70253;SDS011;57649;42.968;1.608;2023-02-20T13:12:28;4.60;;;1.85;;
70253;SDS011;57649;42.968;1.608;2023-02-20T13:15:06;4.53;;;1.70;;
70253;SDS011;57649;42.968;1.608;2023-02-20T13:17:39;2.90;;;1.90;;
70253;SDS011;57649;42.968;1.608;2023-02-20T13:20:19;3.05;;;2.10;;
70253;SDS011;57649;42.968;1.608;2023-02-20T13:22:57;6.07;;;1.50;;
70253;SDS011;57649;42.968;1.608;2023-02-20T13:28:01;9.45;;;2.05;;
70253;SDS011;57649;42.968;1.608;2023-02-20T13:33:30;2.50;;;1.83;;
70253;SDS011;57649;42.968;1.608;2023-02-20T13:35:56;2.15;;;1.45;;
70253;SDS011;57649;42.968;1.608;2023-02-20T13:38:24;6.13;;;1.67;;
70253;SDS011;57649;42.968;1.608;2023-02-20T13:45:49;3.00;;;1.70;;
70253;SDS011;57649;42.968;1.608;2023-02-20T13:48:48;2.42;;;1.70;;
70253;SDS011;57649;42.968;1.608;2023-02-20T13:59:14;2.60;;;1.52;;
70253;SDS011;57649;42.968;1.608;2023-02-20T14:04:52;2.65;;;1.42;;
70253;SDS011;57649;42.968;1.608;2023-02-20T14:07:26;2.08;;;1.20;;
70253;SDS011;57649;42.968;1.608;2023-02-20T14:09:59;2.67;;;1.20;;
70253;SDS011;57649;42.968;1.608;2023-02-20T14:12:26;4.85;;;1.50;;
70253;SDS011;57649;42.968;1.608;2023-02-20T14:14:51;3.10;;;1.80;;
70253;SDS011;57649;42.968;1.608;2023-02-20T14:17:18;4.25;;;1.45;;
70253;SDS011;57649;42.968;1.608;2023-02-20T14:19:46;3.35;;;1.50;;
70253;SDS011;57649;42.968;1.608;2023-02-20T14:27:43;6.28;;;1.50;;
70253;SDS011;57649;42.968;1.608;2023-02-20T14:32:44;4.85;;;1.67;;
70253;SDS011;57649;42.968;1.608;2023-02-20T14:35:14;3.78;;;2.60;;
70253;SDS011;57649;42.968;1.608;2023-02-20T14:37:45;4.22;;;2.38;;
70253;SDS011;57649;42.968;1.608;2023-02-20T14:43:02;4.72;;;1.58;;
70253;SDS011;57649;42.968;1.608;2023-02-20T14:45:32;6.07;;;1.88;;
70253;SDS011;57649;42.968;1.608;2023-02-20T14:47:59;3.55;;;1.25;;
70253;SDS011;57649;42.968;1.608;2023-02-20T14:50:26;2.75;;;1.10;;
70253;SDS011;57649;42.968;1.608;2023-02-20T14:53:09;4.00;;;2.20;;
70253;SDS011;57649;42.968;1.608;2023-02-20T14:55:37;3.08;;;1.27;;
70253;SDS011;57649;42.968;1.608;2023-02-20T14:58:04;3.28;;;1.20;;
70253;SDS011;57649;42.968;1.608;2023-02-20T15:00:41;4.15;;;1.38;;
70253;SDS011;57649;42.968;1.608;2023-02-20T15:03:24;2.90;;;1.50;;
70253;SDS011;57649;42.968;1.608;2023-02-20T15:05:52;4.10;;;1.60;;
70253;SDS011;57649;42.968;1.608;2023-02-20T15:08:20;5.18;;;2.15;;
70253;SDS011;57649;42.968;1.608;2023-02-20T15:10:48;4.78;;;2.05;;
70253;SDS011;57649;42.968;1.608;2023-02-20T15:13:20;4.00;;;1.80;;
70253;SDS011;57649;42.968;1.608;2023-02-20T15:16:05;4.93;;;1.85;;
70253;SDS011;57649;42.968;1.608;2023-02-20T15:18:45;3.92;;;2.20;;
70253;SDS011;57649;42.968;1.608;2023-02-20T15:21:11;2.92;;;1.60;;
70253;SDS011;57649;42.968;1.608;2023-02-20T15:23:39;8.48;;;1.83;;
70253;SDS011;57649;42.968;1.608;2023-02-20T15:26:28;5.53;;;1.88;;
70253;SDS011;57649;42.968;1.608;2023-02-20T15:29:08;3.88;;;1.77;;
70253;SDS011;57649;42.968;1.608;2023-02-20T15:31:59;4.95;;;1.95;;
70253;SDS011;57649;42.968;1.608;2023-02-20T15:34:29;3.88;;;2.00;;
70253;SDS011;57649;42.968;1.608;2023-02-20T15:37:01;10.55;;;2.20;;
70253;SDS011;57649;42.968;1.608;2023-02-20T15:39:42;4.78;;;1.92;;
70253;SDS011;57649;42.968;1.608;2023-02-20T15:42:11;6.28;;;1.85;;
70253;SDS011;57649;42.968;1.608;2023-02-20T15:44:37;4.47;;;2.40;;
70253;SDS011;57649;42.968;1.608;2023-02-20T15:47:03;9.45;;;2.50;;
70253;SDS011;57649;42.968;1.608;2023-02-20T15:49:28;5.78;;;2.53;;
70253;SDS011;57649;42.968;1.608;2023-02-20T15:51:54;5.20;;;2.30;;
70253;SDS011;57649;42.968;1.608;2023-02-20T15:54:19;5.15;;;2.55;;
70253;SDS011;57649;42.968;1.608;2023-02-20T15:56:45;5.78;;;2.70;;
70253;SDS011;57649;42.968;1.608;2023-02-20T15:59:11;4.03;;;2.22;;
70253;SDS011;57649;42.968;1.608;2023-02-20T16:01:37;5.30;;;2.20;;
70253;SDS011;57649;42.968;1.608;2023-02-20T16:04:05;9.55;;;2.65;;
70253;SDS011;57649;42.968;1.608;2023-02-20T16:06:31;5.97;;;2.13;;
70253;SDS011;57649;42.968;1.608;2023-02-20T16:08:57;5.35;;;2.70;;
70253;SDS011;57649;42.968;1.608;2023-02-20T16:11:23;7.63;;;2.85;;
70253;SDS011;57649;42.968;1.608;2023-02-20T16:13:53;5.75;;;2.83;;
70253;SDS011;57649;42.968;1.608;2023-02-20T16:19:14;4.47;;;3.05;;
70253;SDS011;57649;42.968;1.608;2023-02-20T16:21:44;4.15;;;2.40;;
70253;SDS011;57649;42.968;1.608;2023-02-20T16:24:10;4.35;;;2.13;;
70253;SDS011;57649;42.968;1.608;2023-02-20T16:26:36;4.50;;;2.10;;
70253;SDS011;57649;42.968;1.608;2023-02-20T16:29:06;4.07;;;2.83;;
70253;SDS011;57649;42.968;1.608;2023-02-20T16:34:24;3.83;;;2.60;;
70253;SDS011;57649;42.968;1.608;2023-02-20T16:36:52;3.97;;;1.92;;
70253;SDS011;57649;42.968;1.608;2023-02-20T16:39:18;6.50;;;2.42;;
70253;SDS011;57649;42.968;1.608;2023-02-20T16:41:44;6.53;;;2.80;;
70253;SDS011;57649;42.968;1.608;2023-02-20T16:44:14;4.78;;;2.22;;
70253;SDS011;57649;42.968;1.608;2023-02-20T16:46:46;7.47;;;2.58;;
70253;SDS011;57649;42.968;1.608;2023-02-20T16:49:12;8.90;;;4.47;;
70253;SDS011;57649;42.968;1.608;2023-02-20T16:51:39;5.70;;;2.80;;
70253;SDS011;57649;42.968;1.608;2023-02-20T16:54:05;9.35;;;3.08;;
70253;SDS011;57649;42.968;1.608;2023-02-20T16:56:31;3.45;;;2.30;;
70253;SDS011;57649;42.968;1.608;2023-02-20T16:58:56;7.90;;;3.20;;
70253;SDS011;57649;42.968;1.608;2023-02-20T17:01:23;5.88;;;3.03;;